Pagrindinis puslapis
METAR-TAF:

METAR-TAF

Oro uostai :

Estešundas-Frösön, Švedija

platuma: 63-11N, ilguma: 014-30E, Aukštis: 376 m

Dabartinis oras

Ataskaita buvo paskelbta 17 minutes, ne 01:50 UTC
Vėjas 19 kt iš Šiaurės/Šiaurės Vakarų
Temperatūra -4°C
Drėgmė 68%
Slėgis 993 hPa
Matomumas 10 km arba daugiau

METAR: ESNZ 200150Z AUTO 34019KT 9999 NCD M04/M09 Q0993

Laikas: 03:07 (02:07 UTC)

Prognozė

Ataskaita buvo paskelbta 8 valandos ir 37 minutes, ne 17:30 UTC
Prognozė galioja nuo 19 metu 18 UTC su 19 metu 20 UTC
Vėjas 18 kt iš Šiaurės Vakarų su gūsio iki 33 kt
Matomumas 10 km arba daugiau
Išsisklaidę debesys ne aukštis 2500 ft

TAF: ESNZ 191730Z 1918/1920 32018G33KT 9999 SCT025

Orai ataskaitas ir orų prognozės (METAR, TAF).

turimą stotys yra geltonos ir raudonos taškus žemėlapyje.

Perkelti pele per norėdami pamatyti stoties vardą.

Tada spustelėkite, norėdami matyti oro stebėjimo ir prognozės.

Norėdami pakeisti žemėlapį: spustelėkite ant žalios mygtukų su juodo kryžiaus žemyn,; žalią mygtuką su brūkšneliu, jei norite nutolinti; arba žalių rodyklių gretimoms žemėlapius.


METAR-TAF: